Time;durP1;ratioP1;P1;durP2;ratioP2;P2;SDS_P1;SDS_P2;PMS_P1;PMS_P2;Temp;Humidity;BMP_temperature;BMP_pressure;BME280_temperature;BME280_humidity;BME280_pressure;Samples;Min_cycle;Max_cycle;Signal;HPM_P1;HPM_P2
2023/01/23 00:01:33;;;;;;;1.35;0.38;;;18.00;65.20;;;;;;4497951;31;20139;-67
2023/01/23 00:03:59;;;;;;;0.80;0.38;;;18.00;65.20;;;;;;4497047;31;20262;-66
2023/01/23 00:06:25;;;;;;;0.57;0.30;;;18.00;65.20;;;;;;4481401;32;20124;-67
2023/01/23 00:08:52;;;;;;;0.95;0.40;;;17.90;65.20;;;;;;4482634;31;20137;-66
2023/01/23 00:11:21;;;;;;;1.35;0.40;;;17.90;65.20;;;;;;4480582;32;20275;-67
2023/01/23 00:13:47;;;;;;;0.85;0.40;;;17.90;65.20;;;;;;4491061;31;20129;-66
2023/01/23 00:16:20;;;;;;;0.52;0.20;;;17.90;65.20;;;;;;4471720;31;20159;-67
2023/01/23 00:18:47;;;;;;;1.08;0.43;;;17.90;65.20;;;;;;4481622;32;20451;-67
2023/01/23 00:21:19;;;;;;;0.80;0.45;;;17.90;65.30;;;;;;4493809;31;20128;-66
2023/01/23 00:23:48;;;;;;;0.70;0.40;;;17.90;65.20;;;;;;4477037;32;20244;-67
2023/01/23 00:26:17;;;;;;;0.98;0.30;;;17.80;65.30;;;;;;4478349;32;20112;-66
2023/01/23 00:28:44;;;;;;;0.50;0.38;;;17.80;65.20;;;;;;4496844;32;20165;-66
2023/01/23 00:31:15;;;;;;;0.50;0.30;;;17.80;65.30;;;;;;4498479;32;20121;-66
2023/01/23 00:33:43;;;;;;;1.02;0.32;;;17.80;65.30;;;;;;4496849;32;20140;-67
2023/01/23 00:36:09;;;;;;;0.93;0.50;;;17.80;65.40;;;;;;4498173;32;20146;-67
2023/01/23 00:38:35;;;;;;;0.55;0.30;;;17.80;65.40;;;;;;4469685;32;20140;-66
2023/01/23 00:41:01;;;;;;;0.70;0.45;;;17.80;65.40;;;;;;4480967;32;20113;-66
2023/01/23 00:43:28;;;;;;;0.43;0.30;;;17.80;65.40;;;;;;4483055;32;20092;-65
2023/01/23 00:45:58;;;;;;;1.33;0.40;;;17.80;65.40;;;;;;4496767;32;20139;-66
2023/01/23 00:48:24;;;;;;;0.65;0.40;;;17.80;65.40;;;;;;4472764;32;20140;-66
2023/01/23 00:50:56;;;;;;;0.65;0.45;;;17.70;65.30;;;;;;4479747;32;20124;-66
2023/01/23 00:53:22;;;;;;;0.30;0.22;;;17.70;65.40;;;;;;4481539;32;20182;-67
2023/01/23 00:55:48;;;;;;;0.40;0.22;;;17.70;65.30;;;;;;4480294;32;20176;-66
2023/01/23 00:58:15;;;;;;;1.10;0.50;;;17.70;65.40;;;;;;4491921;32;20190;-66
2023/01/23 01:00:40;;;;;;;0.57;0.30;;;17.70;65.40;;;;;;4497560;32;20089;-66
2023/01/23 01:03:07;;;;;;;1.38;0.38;;;17.70;65.40;;;;;;4473663;32;20135;-66
2023/01/23 01:05:36;;;;;;;0.55;0.30;;;17.70;65.40;;;;;;4495767;32;20133;-66
2023/01/23 01:08:01;;;;;;;0.47;0.30;;;17.60;65.40;;;;;;4496212;32;20129;-66
2023/01/23 01:10:28;;;;;;;0.90;0.25;;;17.60;65.40;;;;;;4497967;32;20184;-66
2023/01/23 01:12:58;;;;;;;0.75;0.20;;;17.60;65.40;;;;;;4471404;31;20143;-66
2023/01/23 01:15:25;;;;;;;0.90;0.52;;;17.60;65.40;;;;;;4500383;31;20132;-67
2023/01/23 01:17:53;;;;;;;0.63;0.30;;;17.60;65.40;;;;;;4500573;31;20081;-66
2023/01/23 01:20:22;;;;;;;1.13;0.40;;;17.60;65.50;;;;;;4499475;31;20188;-66
2023/01/23 01:22:49;;;;;;;0.52;0.40;;;17.60;65.40;;;;;;4500618;31;20159;-66
2023/01/23 01:25:15;;;;;;;1.00;0.30;;;17.60;65.50;;;;;;4499007;31;20132;-66
2023/01/23 01:27:41;;;;;;;0.50;0.30;;;17.60;65.40;;;;;;4500735;31;20151;-66
2023/01/23 01:30:08;;;;;;;0.50;0.20;;;17.60;65.40;;;;;;4482626;32;20179;-66
2023/01/23 01:32:38;;;;;;;0.70;0.38;;;17.60;65.50;;;;;;4493033;31;20150;-66
2023/01/23 01:35:06;;;;;;;1.08;0.40;;;17.50;65.40;;;;;;4472018;32;20719;-66
2023/01/23 01:37:33;;;;;;;1.05;0.32;;;17.50;65.40;;;;;;4491461;31;20139;-66
2023/01/23 01:40:00;;;;;;;0.47;0.20;;;17.50;65.40;;;;;;4485662;31;20117;-66
2023/01/23 01:42:27;;;;;;;0.57;0.17;;;17.50;65.40;;;;;;4499284;31;20470;-66
2023/01/23 01:45:00;;;;;;;0.75;0.30;;;17.50;65.40;;;;;;4500142;31;20570;-66
2023/01/23 01:47:27;;;;;;;0.80;0.30;;;17.50;65.40;;;;;;4499841;31;20202;-66
2023/01/23 01:49:59;;;;;;;0.82;0.20;;;17.50;65.50;;;;;;4482411;32;20131;-66
2023/01/23 01:52:26;;;;;;;0.80;0.40;;;17.50;65.50;;;;;;4500465;31;20268;-66
2023/01/23 01:55:04;;;;;;;0.40;0.25;;;17.50;65.50;;;;;;4474435;32;20184;-66
2023/01/23 01:57:37;;;;;;;0.95;0.45;;;17.50;65.40;;;;;;4488806;31;20134;-66
2023/01/23 02:00:15;;;;;;;0.57;0.35;;;17.50;65.40;;;;;;4482420;32;20136;-66
2023/01/23 02:02:44;;;;;;;1.77;0.50;;;17.50;65.40;;;;;;4488999;31;20152;-66
2023/01/23 02:05:16;;;;;;;0.70;0.30;;;17.40;65.40;;;;;;4500081;31;20158;-66
2023/01/23 02:07:57;;;;;;;0.60;0.30;;;17.40;65.40;;;;;;4498782;31;20144;-66
2023/01/23 02:10:26;;;;;;;0.73;0.25;;;17.40;65.40;;;;;;4500072;31;20309;-66
2023/01/23 02:12:52;;;;;;;1.60;0.47;;;17.40;65.40;;;;;;4484723;31;20144;-66
2023/01/23 02:15:20;;;;;;;0.50;0.25;;;17.40;65.40;;;;;;4499472;31;20382;-66
2023/01/23 02:17:49;;;;;;;0.60;0.20;;;17.40;65.40;;;;;;4499800;31;20151;-66
2023/01/23 02:20:20;;;;;;;0.75;0.30;;;17.40;65.40;;;;;;4481850;32;20211;-66
2023/01/23 02:23:08;;;;;;;0.63;0.30;;;17.40;65.50;;;;;;4495381;31;20144;-66
2023/01/23 02:25:44;;;;;;;0.50;0.30;;;17.40;65.40;;;;;;4484306;31;20544;-66
2023/01/23 02:28:12;;;;;;;0.30;0.28;;;17.40;65.50;;;;;;4499263;31;20139;-66
2023/01/23 02:30:39;;;;;;;0.77;0.22;;;17.30;65.40;;;;;;4478143;32;20087;-66
2023/01/23 02:33:23;;;;;;;0.70;0.20;;;17.30;65.40;;;;;;4494773;31;20186;-66
2023/01/23 02:35:49;;;;;;;0.80;0.40;;;17.30;65.40;;;;;;4499782;31;20176;-66
2023/01/23 02:38:19;;;;;;;0.82;0.32;;;17.30;65.40;;;;;;4498327;31;20111;-66
2023/01/23 02:40:45;;;;;;;1.25;0.30;;;17.30;65.40;;;;;;4482669;32;20144;-66
2023/01/23 02:43:18;;;;;;;1.15;0.40;;;17.30;65.40;;;;;;4494759;31;20190;-65
2023/01/23 02:45:44;;;;;;;;;;;17.30;65.40;;;;;;4478820;32;20129;-66
2023/01/23 02:48:11;;;;;;;0.68;0.30;;;17.30;65.40;;;;;;4469727;32;20043;-66
2023/01/23 02:50:37;;;;;;;0.65;0.30;;;17.30;65.50;;;;;;4459871;31;20124;-66
2023/01/23 02:53:04;;;;;;;1.00;0.30;;;17.30;65.50;;;;;;4499455;31;20127;-66
2023/01/23 02:55:31;;;;;;;0.45;0.25;;;17.30;65.40;;;;;;4497972;31;20189;-66
2023/01/23 03:00:45;;;;;;;1.20;0.30;;;17.20;65.40;;;;;;4462790;31;20088;-66
2023/01/23 03:03:11;;;;;;;0.60;0.30;;;17.20;65.50;;;;;;4497619;31;20652;-66
2023/01/23 03:05:37;;;;;;;0.30;0.20;;;17.20;65.40;;;;;;4471087;32;20159;-66
2023/01/23 03:08:04;;;;;;;0.88;0.38;;;17.20;65.50;;;;;;4489433;31;20517;-66
2023/01/23 03:10:30;;;;;;;0.68;0.30;;;17.20;65.40;;;;;;4499105;31;20190;-66
2023/01/23 03:13:02;;;;;;;0.30;0.30;;;17.20;65.50;;;;;;4484059;31;20135;-66
2023/01/23 03:15:30;;;;;;;0.60;0.20;;;17.20;65.40;;;;;;4469020;32;20629;-66
2023/01/23 03:17:56;;;;;;;0.60;0.22;;;17.20;65.50;;;;;;4496404;31;20143;-65
2023/01/23 03:20:25;;;;;;;0.88;0.45;;;17.20;65.50;;;;;;4482296;31;20133;-67
2023/01/23 03:22:52;;;;;;;0.55;0.20;;;17.20;65.50;;;;;;4498920;31;20113;-67
2023/01/23 03:25:19;;;;;;;0.50;0.30;;;17.20;65.50;;;;;;4497244;31;20180;-66
2023/01/23 03:27:45;;;;;;;1.25;0.40;;;17.20;65.50;;;;;;4498569;31;20642;-67
2023/01/23 03:30:15;;;;;;;0.70;0.30;;;17.20;65.50;;;;;;4472811;31;20251;-66
2023/01/23 03:32:44;;;;;;;0.93;0.30;;;17.20;65.50;;;;;;4497479;31;20143;-68
2023/01/23 03:35:15;;;;;;;0.50;0.30;;;17.20;65.40;;;;;;4498122;31;20142;-67
2023/01/23 03:37:45;;;;;;;0.40;0.20;;;17.20;65.40;;;;;;4497266;31;20146;-67
2023/01/23 03:43:07;;;;;;;0.82;0.43;;;17.20;65.30;;;;;;4496945;31;20132;-66
2023/01/23 03:45:33;;;;;;;0.50;0.20;;;17.20;65.20;;;;;;4468677;31;20144;-67
2023/01/23 03:47:59;;;;;;;0.50;0.30;;;17.30;65.30;;;;;;4478804;32;20176;-66
2023/01/23 03:50:26;;;;;;;0.65;0.28;;;17.30;65.20;;;;;;4491956;31;20263;-66
2023/01/23 03:52:52;;;;;;;0.30;0.20;;;17.30;65.20;;;;;;4471286;31;20168;-66
2023/01/23 03:55:17;;;;;;;0.35;0.15;;;17.30;65.10;;;;;;4497171;31;20302;-66
2023/01/23 03:57:43;;;;;;;0.55;0.28;;;17.30;65.10;;;;;;4498195;31;20168;-66
2023/01/23 04:00:12;;;;;;;0.20;0.20;;;17.30;65.00;;;;;;4476782;32;20125;-66
2023/01/23 04:02:38;;;;;;;0.45;0.20;;;17.30;65.00;;;;;;4493570;31;20120;-67
2023/01/23 04:05:05;;;;;;;0.88;0.40;;;17.40;65.00;;;;;;4498342;31;20113;-66
2023/01/23 04:07:31;;;;;;;0.22;0.17;;;17.40;64.90;;;;;;4472407;32;20125;-67
2023/01/23 04:09:57;;;;;;;0.65;0.20;;;17.40;64.90;;;;;;4470702;31;20139;-66
2023/01/23 04:12:23;;;;;;;0.65;0.30;;;17.40;64.80;;;;;;4497115;31;20144;-66
2023/01/23 04:14:49;;;;;;;0.80;0.30;;;17.40;64.80;;;;;;4498096;31;20113;-67
2023/01/23 04:17:15;;;;;;;1.63;0.38;;;17.40;64.70;;;;;;4497698;31;20272;-66
2023/01/23 04:19:41;;;;;;;1.50;0.45;;;17.40;64.70;;;;;;4470357;31;20139;-67
2023/01/23 04:22:08;;;;;;;0.68;0.30;;;17.40;64.60;;;;;;4481406;32;20077;-66
2023/01/23 04:24:36;;;;;;;0.57;0.20;;;17.40;64.60;;;;;;4492061;31;20465;-66
2023/01/23 04:27:02;;;;;;;0.73;0.30;;;17.50;64.60;;;;;;4481437;32;20172;-66
2023/01/23 04:29:28;;;;;;;0.85;0.40;;;17.40;64.50;;;;;;4490430;32;20234;-67
2023/01/23 04:31:54;;;;;;;0.50;0.25;;;17.50;64.50;;;;;;4483516;32;20156;-67
2023/01/23 04:34:20;;;;;;;0.52;0.20;;;17.50;64.50;;;;;;4475969;32;20132;-66
2023/01/23 04:36:46;;;;;;;0.95;0.20;;;17.50;64.50;;;;;;4479665;32;20205;-67
2023/01/23 04:39:12;;;;;;;0.45;0.20;;;17.50;64.40;;;;;;4498013;32;20267;-66
2023/01/23 04:41:38;;;;;;;0.98;0.20;;;17.50;64.40;;;;;;4472196;32;20125;-67
2023/01/23 04:44:20;;;;;;;0.93;0.30;;;17.50;64.40;;;;;;4497510;32;20125;-66
2023/01/23 04:46:48;;;;;;;0.52;0.20;;;17.50;64.40;;;;;;4481397;32;20145;-66
2023/01/23 04:49:15;;;;;;;0.45;0.30;;;17.50;64.30;;;;;;4483931;32;20136;-67
2023/01/23 04:51:43;;;;;;;0.70;0.30;;;17.50;64.30;;;;;;4480416;31;20112;-66
2023/01/23 04:54:09;;;;;;;0.60;0.20;;;17.50;64.20;;;;;;4472996;31;20557;-66
2023/01/23 04:56:35;;;;;;;0.30;0.20;;;17.50;64.20;;;;;;4478879;32;20133;-66
2023/01/23 04:59:01;;;;;;;0.88;0.35;;;17.50;64.20;;;;;;4469671;31;20129;-66
2023/01/23 05:01:27;;;;;;;0.57;0.20;;;17.50;64.10;;;;;;4501307;31;20128;-66
2023/01/23 05:03:53;;;;;;;0.38;0.20;;;17.50;64.10;;;;;;4499332;31;20774;-66
2023/01/23 05:06:19;;;;;;;0.40;0.20;;;17.50;64.10;;;;;;4483980;32;20486;-67
2023/01/23 05:08:45;;;;;;;0.10;0.10;;;17.50;64.10;;;;;;4483568;32;20163;-66
2023/01/23 05:11:11;;;;;;;0.35;0.20;;;17.50;64.10;;;;;;4497724;31;20597;-67
2023/01/23 05:13:37;;;;;;;0.30;0.22;;;17.50;64.10;;;;;;4500827;31;20113;-66
2023/01/23 05:16:03;;;;;;;0.28;0.20;;;17.50;64.10;;;;;;4474104;31;20139;-66
2023/01/23 05:18:34;;;;;;;0.20;0.20;;;17.50;64.10;;;;;;4471716;32;20097;-66
2023/01/23 05:21:00;;;;;;;0.50;0.20;;;17.50;64.10;;;;;;4495684;31;20139;-66
2023/01/23 05:23:25;;;;;;;0.70;0.30;;;17.50;64.20;;;;;;4480642;32;20145;-67
2023/01/23 05:25:51;;;;;;;0.20;0.20;;;17.50;64.20;;;;;;4470061;32;20282;-66
2023/01/23 05:28:17;;;;;;;0.10;0.10;;;17.50;64.20;;;;;;4471088;31;20139;-67
2023/01/23 05:30:43;;;;;;;0.40;0.20;;;17.40;64.20;;;;;;4500555;31;20129;-66
2023/01/23 05:33:09;;;;;;;0.68;0.22;;;17.40;64.20;;;;;;4482236;32;20109;-66
2023/01/23 05:35:37;;;;;;;0.63;0.43;;;17.40;64.30;;;;;;4500159;31;20121;-66
2023/01/23 05:38:03;;;;;;;0.70;0.28;;;17.40;64.30;;;;;;4498656;31;20135;-66
2023/01/23 05:40:29;;;;;;;0.52;0.30;;;17.40;64.30;;;;;;4486204;31;20125;-67
2023/01/23 05:42:55;;;;;;;0.63;0.20;;;17.40;64.30;;;;;;4482564;32;20125;-66
2023/01/23 05:45:21;;;;;;;0.55;0.20;;;17.40;64.30;;;;;;4495001;31;20130;-66
2023/01/23 05:47:47;;;;;;;0.55;0.30;;;17.40;64.30;;;;;;4500250;31;20211;-66
2023/01/23 05:50:16;;;;;;;0.50;0.20;;;17.40;64.30;;;;;;4473807;32;20135;-66
2023/01/23 05:52:43;;;;;;;0.20;0.10;;;17.40;64.30;;;;;;4489823;31;20147;-66
2023/01/23 05:55:09;;;;;;;0.20;0.13;;;17.40;64.30;;;;;;4482025;32;20259;-66
2023/01/23 05:57:35;;;;;;;0.63;0.30;;;17.40;64.30;;;;;;4498287;31;20187;-66
2023/01/23 06:00:02;;;;;;;0.25;0.20;;;17.30;64.30;;;;;;4476766;32;20129;-65
2023/01/23 06:02:28;;;;;;;0.32;0.15;;;17.30;64.30;;;;;;4496703;31;20163;-67
2023/01/23 06:04:54;;;;;;;0.52;0.15;;;17.30;64.30;;;;;;4500168;31;20160;-66
2023/01/23 06:07:20;;;;;;;0.63;0.20;;;17.30;64.30;;;;;;4482359;31;20760;-66
2023/01/23 06:09:46;;;;;;;0.60;0.30;;;17.30;64.30;;;;;;4499989;31;20140;-66
2023/01/23 06:12:12;;;;;;;0.60;0.20;;;17.30;64.30;;;;;;4471420;31;20266;-66
2023/01/23 06:14:38;;;;;;;1.02;0.30;;;17.30;64.40;;;;;;4499866;31;20144;-67
2023/01/23 06:17:12;;;;;;;0.55;0.30;;;17.30;64.30;;;;;;4482454;32;20132;-66
2023/01/23 06:19:39;;;;;;;0.55;0.22;;;17.30;64.40;;;;;;4496628;31;20250;-66
2023/01/23 06:22:04;;;;;;;0.85;0.28;;;17.30;64.30;;;;;;4499910;31;20132;-66
2023/01/23 06:24:31;;;;;;;0.40;0.30;;;17.30;64.30;;;;;;4498327;31;20185;-66
2023/01/23 06:26:56;;;;;;;0.50;0.20;;;17.30;64.30;;;;;;4479283;32;20129;-66
2023/01/23 06:29:23;;;;;;;0.52;0.22;;;17.30;64.30;;;;;;4477113;32;20132;-66
2023/01/23 06:31:49;;;;;;;0.22;0.10;;;17.30;64.30;;;;;;4496568;31;20125;-66
2023/01/23 06:34:15;;;;;;;0.28;0.20;;;17.30;64.30;;;;;;4478160;32;20144;-66
2023/01/23 06:36:41;;;;;;;0.75;0.20;;;17.30;64.30;;;;;;4494795;31;20128;-66
2023/01/23 06:39:11;;;;;;;0.20;0.20;;;17.30;64.40;;;;;;4499540;31;20088;-66
2023/01/23 06:41:37;;;;;;;0.55;0.22;;;17.30;64.40;;;;;;4498371;31;20374;-67
2023/01/23 06:44:03;;;;;;;0.70;0.25;;;17.30;64.30;;;;;;4472253;31;20154;-66
2023/01/23 06:46:33;;;;;;;0.20;0.20;;;17.30;64.30;;;;;;4475113;32;20526;-66
2023/01/23 06:48:59;;;;;;;0.30;0.20;;;17.30;64.40;;;;;;4469616;32;20121;-66
2023/01/23 06:51:25;;;;;;;0.32;0.20;;;17.30;64.30;;;;;;4490491;31;20180;-66
2023/01/23 06:53:51;;;;;;;0.32;0.30;;;17.30;64.30;;;;;;4498616;31;20140;-66
2023/01/23 06:56:17;;;;;;;0.30;0.20;;;17.30;64.30;;;;;;4499237;31;20107;-66
2023/01/23 06:58:45;;;;;;;0.75;0.20;;;17.30;64.40;;;;;;4472886;32;20113;-66
2023/01/23 07:01:14;;;;;;;0.20;0.20;;;17.30;64.40;;;;;;4471632;32;20140;-66
2023/01/23 07:03:41;;;;;;;0.30;0.22;;;17.30;64.30;;;;;;4462416;32;20124;-66
2023/01/23 07:06:07;;;;;;;0.20;0.20;;;17.30;64.40;;;;;;4498079;31;20139;-66
2023/01/23 07:08:34;;;;;;;0.20;0.20;;;17.30;64.40;;;;;;4498124;31;20144;-66
2023/01/23 07:11:01;;;;;;;0.98;0.20;;;17.30;64.30;;;;;;4473107;31;20132;-66
2023/01/23 07:13:27;;;;;;;0.20;0.17;;;17.30;64.30;;;;;;4499236;31;20139;-66
2023/01/23 07:15:53;;;;;;;0.22;0.10;;;17.20;64.20;;;;;;4497445;31;20608;-66
2023/01/23 07:18:19;;;;;;;0.52;0.30;;;17.30;64.30;;;;;;4499118;31;20136;-66
2023/01/23 07:20:48;;;;;;;0.30;0.10;;;17.20;64.30;;;;;;4497353;31;20189;-66
2023/01/23 07:23:15;;;;;;;0.20;0.20;;;17.20;64.20;;;;;;4498839;31;20138;-66
2023/01/23 07:25:40;;;;;;;0.40;0.20;;;17.20;64.30;;;;;;4481084;32;20133;-66
2023/01/23 07:28:07;;;;;;;0.20;0.20;;;17.20;64.30;;;;;;4481358;32;20117;-67
2023/01/23 07:30:38;;;;;;;0.77;0.20;;;17.20;64.30;;;;;;4488345;31;20586;-66
2023/01/23 07:33:05;;;;;;;0.30;0.20;;;17.20;64.30;;;;;;4467606;32;20109;-66
2023/01/23 07:35:31;;;;;;;0.20;0.20;;;17.20;64.30;;;;;;4496854;31;20567;-66
2023/01/23 07:38:05;;;;;;;;;;;17.20;64.30;;;;;;4475551;32;20203;-66
2023/01/23 07:40:37;;;;;;;0.28;0.17;;;17.20;64.20;;;;;;4468935;32;20018;-66
2023/01/23 07:43:04;;;;;;;0.30;0.10;;;17.20;64.30;;;;;;4474405;32;20141;-65
2023/01/23 07:45:30;;;;;;;0.88;0.40;;;17.20;64.40;;;;;;4494150;31;20706;-66
2023/01/23 07:47:56;;;;;;;1.05;0.30;;;17.20;64.30;;;;;;4498769;31;20135;-66
2023/01/23 07:50:22;;;;;;;0.52;0.20;;;17.20;64.30;;;;;;4497067;31;20274;-66
2023/01/23 07:52:48;;;;;;;0.65;0.45;;;17.20;64.30;;;;;;4498542;31;20136;-66
2023/01/23 07:55:15;;;;;;;0.17;0.10;;;17.20;64.40;;;;;;4497275;31;20139;-66
2023/01/23 07:57:44;;;;;;;0.20;0.20;;;17.20;64.30;;;;;;4471991;31;20120;-66
2023/01/23 08:00:11;;;;;;;0.40;0.13;;;17.20;64.30;;;;;;4497960;31;20143;-66
2023/01/23 08:02:37;;;;;;;0.63;0.20;;;17.20;64.30;;;;;;4480324;32;20319;-66
2023/01/23 08:05:04;;;;;;;0.40;0.20;;;17.20;64.30;;;;;;4490576;31;20133;-66
2023/01/23 08:07:30;;;;;;;0.80;0.20;;;17.20;64.30;;;;;;4471638;31;20176;-66
2023/01/23 08:09:56;;;;;;;0.88;0.10;;;17.20;64.30;;;;;;4471257;31;20139;-66
2023/01/23 08:12:22;;;;;;;0.85;0.50;;;17.20;64.50;;;;;;4471879;31;20147;-66
2023/01/23 08:14:48;;;;;;;0.40;0.20;;;17.10;64.80;;;;;;4498147;31;20571;-66
2023/01/23 08:17:13;;;;;;;5.50;0.50;;;17.20;65.10;;;;;;4497655;31;20136;-66
2023/01/23 08:19:39;;;;;;;0.50;0.30;;;17.20;65.20;;;;;;4468746;32;20139;-66
2023/01/23 08:22:12;;;;;;;0.90;0.38;;;17.20;64.80;;;;;;4491004;31;20136;-66
2023/01/23 08:24:38;;;;;;;0.90;0.30;;;17.30;64.60;;;;;;4496773;31;20112;-66
2023/01/23 08:27:05;;;;;;;0.60;0.38;;;17.50;64.40;;;;;;4481285;32;20141;-66
2023/01/23 08:29:31;;;;;;;0.98;0.20;;;17.60;64.00;;;;;;4493353;32;20640;-66
2023/01/23 08:31:57;;;;;;;0.35;0.20;;;17.80;63.70;;;;;;4497561;32;20274;-66
2023/01/23 08:34:24;;;;;;;2.35;0.20;;;17.90;63.30;;;;;;4497698;32;20146;-66
2023/01/23 08:36:50;;;;;;;0.35;0.10;;;18.00;62.90;;;;;;4471943;32;20137;-66
2023/01/23 08:39:17;;;;;;;0.60;0.20;;;18.20;62.60;;;;;;4477968;32;20113;-66
2023/01/23 08:41:43;;;;;;;0.77;0.20;;;18.40;62.30;;;;;;4491896;32;20217;-66
2023/01/23 08:44:08;;;;;;;1.67;0.20;;;18.50;61.90;;;;;;4479182;32;20129;-66
2023/01/23 08:46:34;;;;;;;0.38;0.30;;;18.60;61.50;;;;;;4490233;32;20132;-66
2023/01/23 08:49:00;;;;;;;2.78;0.30;;;18.80;61.10;;;;;;4469592;32;20139;-66
2023/01/23 08:51:26;;;;;;;0.80;0.22;;;18.90;60.80;;;;;;4467404;32;20125;-66
2023/01/23 08:53:52;;;;;;;0.60;0.20;;;19.10;60.40;;;;;;4493944;32;20136;-66
2023/01/23 08:56:21;;;;;;;2.08;0.20;;;19.20;60.10;;;;;;4481050;32;20133;-66
2023/01/23 08:58:48;;;;;;;0.45;0.30;;;19.30;59.80;;;;;;4492201;32;20120;-66
2023/01/23 09:01:19;;;;;;;0.73;0.20;;;19.40;59.60;;;;;;4497912;32;20128;-66
2023/01/23 09:03:46;;;;;;;0.43;0.20;;;19.40;59.40;;;;;;4496419;32;20147;-66
2023/01/23 09:06:13;;;;;;;2.85;0.20;;;19.50;59.30;;;;;;4480785;32;20129;-66
2023/01/23 09:08:39;;;;;;;0.85;0.10;;;19.60;60.10;;;;;;4490853;32;20207;-66
2023/01/23 09:11:08;;;;;;;0.40;0.20;;;19.60;59.10;;;;;;4479971;32;20206;-66
2023/01/23 09:13:34;;;;;;;1.40;0.20;;;19.60;59.10;;;;;;4493631;32;20485;-66
2023/01/23 09:16:00;;;;;;;1.00;0.40;;;19.70;59.10;;;;;;4481650;32;20640;-66
2023/01/23 09:18:26;;;;;;;0.55;0.13;;;19.70;59.10;;;;;;4497369;32;20124;-66
2023/01/23 09:20:53;;;;;;;2.83;0.20;;;19.70;59.00;;;;;;4495712;32;20144;-66
2023/01/23 09:23:19;;;;;;;0.38;0.20;;;19.70;59.00;;;;;;4482932;32;20297;-66
2023/01/23 09:25:47;;;;;;;0.80;0.32;;;19.80;59.10;;;;;;4492517;32;20120;-66
2023/01/23 09:28:12;;;;;;;1.65;0.30;;;19.70;59.00;;;;;;4496204;32;20152;-66
2023/01/23 09:30:39;;;;;;;0.77;0.20;;;19.80;59.00;;;;;;4483155;32;20148;-66
2023/01/23 09:33:05;;;;;;;0.25;0.17;;;19.80;59.00;;;;;;4496256;31;20148;-66
2023/01/23 09:35:31;;;;;;;2.50;0.30;;;19.80;59.00;;;;;;4499936;31;20275;-66
2023/01/23 09:38:00;;;;;;;0.75;0.30;;;19.80;59.00;;;;;;4498678;31;20131;-66
2023/01/23 09:40:44;;;;;;;1.05;0.30;;;19.90;59.00;;;;;;4485996;31;20121;-67
2023/01/23 09:43:45;;;;;;;0.90;0.30;;;19.90;59.00;;;;;;4499685;31;20096;-65
2023/01/23 09:46:18;;;;;;;0.47;0.22;;;19.80;59.00;;;;;;4484424;31;20124;-66
2023/01/23 09:48:45;;;;;;;0.20;0.15;;;19.80;59.00;;;;;;4492104;31;20219;-66
2023/01/23 09:51:24;;;;;;;0.30;0.30;;;19.90;59.00;;;;;;4481393;31;20143;-66
2023/01/23 09:53:53;;;;;;;1.55;0.30;;;19.90;59.00;;;;;;4492243;31;20279;-66
2023/01/23 09:56:34;;;;;;;0.95;0.28;;;19.90;59.00;;;;;;4482181;31;20146;-65
2023/01/23 09:59:12;;;;;;;0.40;0.10;;;19.90;59.10;;;;;;4491879;31;20152;-66
2023/01/23 10:01:38;;;;;;;1.00;0.20;;;19.90;59.00;;;;;;4495665;31;20128;-66
2023/01/23 10:04:04;;;;;;;1.40;0.20;;;19.90;58.90;;;;;;4481658;31;20176;-66
2023/01/23 10:06:46;;;;;;;1.45;0.10;;;20.00;59.00;;;;;;4495806;31;20200;-66
2023/01/23 10:09:57;;;;;;;0.82;0.28;;;19.90;58.90;;;;;;4493142;31;20532;-66
2023/01/23 10:12:38;;;;;;;0.55;0.20;;;20.00;59.00;;;;;;4475641;31;20136;-67
2023/01/23 10:15:13;;;;;;;0.57;0.20;;;20.00;59.00;;;;;;4481679;31;20496;-65
2023/01/23 10:18:17;;;;;;;1.85;0.32;;;20.00;59.00;;;;;;4493014;31;20096;-67
2023/01/23 10:20:54;;;;;;;0.43;0.20;;;20.00;59.20;;;;;;4491508;31;20317;-68
2023/01/23 10:23:23;;;;;;;0.75;0.20;;;20.00;59.30;;;;;;4489206;31;20151;-66
2023/01/23 10:25:49;;;;;;;0.93;0.20;;;20.00;59.30;;;;;;4492292;31;20133;-67
2023/01/23 10:28:38;;;;;;;1.55;0.40;;;20.00;59.30;;;;;;4494086;31;20124;-67
2023/01/23 10:31:50;;;;;;;0.40;0.20;;;20.00;59.40;;;;;;4499795;31;20120;-66
2023/01/23 10:34:33;;;;;;;1.83;0.20;;;20.00;59.40;;;;;;4477908;32;20140;-67
2023/01/23 10:37:14;;;;;;;0.53;0.30;;;20.00;59.50;;;;;;4496008;31;20136;-67
2023/01/23 10:40:01;;;;;;;1.63;0.40;;;20.10;59.70;;;;;;4483067;32;20171;-66
2023/01/23 10:42:27;;;;;;;1.30;0.32;;;20.00;59.70;;;;;;4487551;31;20129;-66
2023/01/23 10:44:53;;;;;;;2.65;0.30;;;20.00;60.60;;;;;;4498767;31;20297;-68
2023/01/23 10:47:32;;;;;;;0.40;0.20;;;20.00;59.70;;;;;;4482374;32;20465;-67
2023/01/23 10:49:59;;;;;;;0.40;0.30;;;20.10;59.90;;;;;;4492071;31;21042;-68
2023/01/23 10:52:29;;;;;;;0.30;0.20;;;20.10;59.90;;;;;;4499370;31;20156;-68
2023/01/23 10:54:55;;;;;;;1.13;0.20;;;20.00;59.90;;;;;;4497548;31;20151;-67
2023/01/23 10:57:28;;;;;;;0.73;0.30;;;20.10;60.00;;;;;;4498664;31;21726;-64
2023/01/23 11:00:03;;;;;;;0.30;0.20;;;20.10;60.00;;;;;;4483773;31;20136;-65
2023/01/23 11:02:35;;;;;;;8.60;0.20;;;20.10;60.00;;;;;;4483347;31;20175;-65
2023/01/23 11:05:21;;;;;;;0.52;0.20;;;20.10;60.00;;;;;;4482198;32;20125;-64
2023/01/23 11:07:53;;;;;;;0.93;0.40;;;20.10;60.10;;;;;;4489647;31;20182;-65
2023/01/23 11:10:22;;;;;;;1.83;0.30;;;20.10;60.00;;;;;;4473726;32;20129;-65
2023/01/23 11:12:50;;;;;;;1.30;0.17;;;20.10;60.00;;;;;;4461992;32;20568;-65
2023/01/23 11:15:30;;;;;;;0.40;0.20;;;20.10;60.00;;;;;;4487102;31;20192;-70
2023/01/23 11:17:57;;;;;;;0.55;0.25;;;20.10;60.00;;;;;;4498234;31;20245;-64
2023/01/23 11:20:36;;;;;;;0.77;0.32;;;20.10;60.00;;;;;;4497261;31;20129;-65
2023/01/23 11:23:14;;;;;;;0.98;0.20;;;20.10;60.10;;;;;;4484568;31;20284;-65
2023/01/23 11:25:51;;;;;;;0.60;0.22;;;20.10;60.20;;;;;;4489754;31;20129;-65
2023/01/23 11:28:29;;;;;;;4.43;0.28;;;20.10;60.20;;;;;;4484310;31;20133;-65
2023/01/23 11:31:08;;;;;;;1.02;0.30;;;20.10;60.20;;;;;;4498885;31;20184;-65
2023/01/23 11:33:51;;;;;;;2.70;0.40;;;20.20;60.30;;;;;;4497023;31;20160;-64
2023/01/23 11:36:23;;;;;;;0.98;0.30;;;20.10;60.10;;;;;;4498680;31;20179;-64
2023/01/23 11:39:15;;;;;;;0.80;0.25;;;20.10;60.20;;;;;;4498279;31;20100;-64
2023/01/23 11:41:43;;;;;;;0.93;0.20;;;20.10;60.10;;;;;;4497292;31;20120;-64
2023/01/23 11:44:15;;;;;;;0.75;0.20;;;20.20;60.20;;;;;;4498085;31;20687;-64
2023/01/23 11:46:56;;;;;;;3.90;0.50;;;20.10;60.00;;;;;;4497328;31;20251;-64
2023/01/23 11:49:28;;;;;;;0.50;0.28;;;20.10;60.00;;;;;;4497237;31;20154;-64
2023/01/23 11:52:26;;;;;;;1.63;0.15;;;20.10;60.00;;;;;;4498548;31;20081;-64
2023/01/23 11:55:13;;;;;;;1.00;0.40;;;20.10;60.00;;;;;;4496959;31;20144;-64
2023/01/23 11:58:13;;;;;;;2.72;0.32;;;20.10;59.90;;;;;;4498083;31;20139;-64
2023/01/23 12:01:09;;;;;;;1.98;0.55;;;20.10;59.80;;;;;;4498472;31;20175;-64
2023/01/23 12:04:05;;;;;;;0.40;0.10;;;20.10;59.60;;;;;;4496809;31;20179;-64
2023/01/23 12:06:53;;;;;;;0.60;0.30;;;20.10;59.50;;;;;;4496986;31;20143;-64
2023/01/23 12:09:20;;;;;;;2.75;0.30;;;20.20;59.50;;;;;;4498382;31;20139;-64
2023/01/23 12:11:55;;;;;;;1.67;0.30;;;20.20;59.40;;;;;;4469753;31;20105;-64
2023/01/23 12:14:55;;;;;;;3.00;0.30;;;20.20;59.30;;;;;;4498250;31;20230;-64
2023/01/23 12:17:48;;;;;;;1.38;0.30;;;20.20;59.20;;;;;;4498339;31;20529;-64
2023/01/23 12:20:25;;;;;;;0.30;0.20;;;20.30;59.20;;;;;;4476165;32;20582;-64
2023/01/23 12:23:16;;;;;;;0.65;0.15;;;20.30;59.10;;;;;;4496486;31;20124;-64
2023/01/23 12:25:49;;;;;;;0.68;0.25;;;20.20;59.00;;;;;;4496999;31;20440;-64
2023/01/23 12:28:45;;;;;;;2.53;0.52;;;20.30;59.10;;;;;;4496506;31;20128;-65
2023/01/23 12:32:03;;;;;;;1.98;0.30;;;20.30;59.00;;;;;;4496400;32;20136;-65
2023/01/23 12:34:44;;;;;;;2.03;0.30;;;20.30;59.00;;;;;;4494449;32;20097;-65
2023/01/23 12:37:38;;;;;;;0.55;0.20;;;20.30;58.90;;;;;;4482548;32;20129;-65
2023/01/23 12:40:12;;;;;;;2.42;0.30;;;20.30;58.90;;;;;;4494236;32;20150;-65
2023/01/23 12:43:03;;;;;;;2.40;0.40;;;20.30;58.80;;;;;;4495371;32;20215;-65
2023/01/23 12:45:31;;;;;;;2.13;0.30;;;20.30;58.80;;;;;;4480167;32;20186;-66
2023/01/23 12:48:13;;;;;;;1.00;0.40;;;20.30;58.80;;;;;;4492551;32;20117;-65
2023/01/23 12:50:59;;;;;;;2.05;0.40;;;20.40;58.90;;;;;;4494038;32;20277;-65
2023/01/23 12:53:27;;;;;;;2.90;0.40;;;20.40;58.90;;;;;;4496211;32;20749;-65
2023/01/23 12:56:04;;;;;;;1.65;0.47;;;20.40;58.80;;;;;;4497368;32;20081;-65
2023/01/23 12:58:43;;;;;;;1.40;0.40;;;20.40;58.80;;;;;;4496200;32;20151;-66
2023/01/23 13:01:38;;;;;;;2.50;0.57;;;20.40;58.70;;;;;;4495732;32;20133;-66
2023/01/23 13:04:11;;;;;;;0.90;0.45;;;20.40;58.90;;;;;;4496330;32;20160;-65
2023/01/23 13:06:54;;;;;;;0.73;0.27;;;20.40;58.80;;;;;;4483235;31;20625;-66
2023/01/23 13:09:31;;;;;;;2.92;0.40;;;20.40;58.80;;;;;;4499062;31;20144;-65
2023/01/23 13:12:23;;;;;;;1.08;0.30;;;20.40;58.90;;;;;;4498460;31;20132;-66